Union, WA (98592)

12:04 PM PDT on September 02, 2015 (GMT -0700)
Potlatch | | Change Station
CLOSE
Current Station
Personal Weather Station
Location: Hoodsport, WA
Elevation: 9 ft
Nearby Weather Stations

Elev 9 ft 47.36 °N, 123.16 °W | Updated 1 minute ago

Mostly Cloudy
Mostly Cloudy
61.5 °F
Feels Like 61.5 °F
N
3.0
Wind Variable Wind from SE
Gusts 7.0 mph

Today
High -- | Low -- °F
--% Chance of Precip.
Yesterday
High -- | Low -- °F
Precip. -- in
6:32 AM 7:50 PM
Waning Gibbous, 78% visible
Pressure 29.90 in
Visibility 10.0 miles
Clouds Few 3100 ft
Scattered Clouds 7000 ft
Dew Point 57 °F
Humidity 85%
Rainfall 0.02 in
Snow Depth Not available.
UV 5 out of 12
Pollen .50 out of 12
Air Quality Not available.
Flu Activity Not available.
METAR KSHN 021853Z AUTO 21011KT 10SM FEW031 SCT070 16/11 A2989 RMK AO2 RAB25E39 SLP124 P0000 T01610106
Pressure 29.90 in
Visibility 10.0 miles
Clouds Few 3100 ft
Scattered Clouds 7000 ft
Dew Point 57 °F
Humidity 85%
Rainfall 0.02 in
Snow Depth Not available.
UV 5 out of 12
Pollen .50 out of 12
Air Quality Not available.
Flu Activity Not available.
METAR KSHN 021853Z AUTO 21011KT 10SM FEW031 SCT070 16/11 A2989 RMK AO2 RAB25E39 SLP124 P0000 T01610106

10-Day Weather Forecast

×

Almanac

Astronomy

Sep. 02, 2015 Rise Set
Actual Time
Civil Twilight
Nautical Twilight
Astronomical Twilight
Moon
Length of Visible Light
Length of Day
Tomorrow will be .
, % of the Moon is Illuminated

Today's Extremes

State Highs State Lows

Community

WunderPhotos

Upload Photos

1,851,799 photos uploaded!

WunderBlogs® & News

Nearby

Air Quality

  Air Quality AQ Index Pollutant
Not available.

Snow Depth

Station Depth Elevation

Earthquake Activity

City Distance Mag. Time & Date
Minimum magnitude displayed is 2.5.

Coastal Water Temperatures

Place Temperature

Stations

Nearby Weather Stations

Station Location Temp. Windchill Dew Point Humidity Wind Precip. Elev Updated Type